Main page
METAR-TAF:

METAR-TAF

Airports :

Uíge Airport

Uíge, Angola

latitude: 7-36-10S, longitude: 15-1-40E, elevation: 829 m

Current weather observation

The report was made 12 hours and 35 minutes ago, at 16:00 UTC
Wind 6 kt from the West
Temperature 28°C
Humidity 62%
Pressure 1013 hPa
Visibility 10 km or more
Few clouds at a height of 2200 ft

METAR: FNUG 201600Z 27006KT 9999 FEW022 28/20 Q1013

Time: 05:36 (04:36 UTC)

Forecast

The report was made 7 hours and 36 minutes ago, at 21:00 UTC
Forecast valid from 21 at 00 UTC to 21 at 12 UTC
Wind 4 kt from the South
Visibility 10 km or more
Scattered clouds at a height of 2000 ft
Few clouds at a height of 2400 ft, Cumulonimbus.
Broken clouds at a height of 8000 ft
thunderstorm, rain
Probability 30% :
Temporary
from 21 at 07 UTC to 21 at 11 UTC
Wind 6 kt from the South
Visibility 10 km or more
Broken clouds at a height of 2200 ft

TAF: FNUG 202100Z 2100/2112 18004KT 9999 TSRA SCT020 FEW024CB BKN080 PROB30 TEMPO 2107/2111 17006KT 9999 BKN022

Weather observations and forecasts of more than 4000 airports (METAR and TAF reports).

The available stations are represented by yellow and red dots on the map.

Hover mouse over dot to see the name of the station.

Then click to see weather observations and forecasts.

To change the map : click on the green buttons with a black cross to zoom in, on the green button with a dash to zoom out, or on the green arrows for adjacent maps.


METAR-TAF: